Time;durP1;ratioP1;P1;durP2;ratioP2;P2;SDS_P1;SDS_P2;PMS_P1;PMS_P2;Temp;Humidity;BMP_temperature;BMP_pressure;BME280_temperature;BME280_humidity;BME280_pressure;Samples;Min_cycle;Max_cycle;Signal;HPM_P1;HPM_P2
2022/04/06 00:00:46;;;;;;;11.27;4.57;;;10.80;99.90;;;;;;5075967;28;20616;-63
2022/04/06 00:03:13;;;;;;;12.43;4.50;;;10.80;99.90;;;;;;5076225;28;20228;-63
2022/04/06 00:05:39;;;;;;;13.37;4.40;;;10.80;99.90;;;;;;5075955;28;20172;-63
2022/04/06 00:08:05;;;;;;;17.60;4.73;;;10.80;99.90;;;;;;5075830;28;20217;-63
2022/04/06 00:10:31;;;;;;;16.20;4.90;;;10.80;99.90;;;;;;5075349;28;20204;-64
2022/04/06 00:12:58;;;;;;;17.57;5.00;;;10.70;99.90;;;;;;5075788;28;20181;-64
2022/04/06 00:15:24;;;;;;;18.87;5.03;;;10.60;99.90;;;;;;5075716;28;20219;-64
2022/04/06 00:17:50;;;;;;;13.83;5.27;;;10.70;99.90;;;;;;5075612;28;20659;-63
2022/04/06 00:20:16;;;;;;;16.97;4.70;;;10.80;99.90;;;;;;5075421;28;20253;-63
2022/04/06 00:22:42;;;;;;;14.90;4.67;;;10.70;99.90;;;;;;5075774;28;20260;-64
2022/04/06 00:25:08;;;;;;;11.03;4.97;;;10.70;99.90;;;;;;5075395;28;20183;-63
2022/04/06 00:27:34;;;;;;;14.17;4.67;;;10.70;99.90;;;;;;5075796;28;20184;-64
2022/04/06 00:30:00;;;;;;;12.50;4.83;;;10.80;99.90;;;;;;5075613;28;20272;-64
2022/04/06 00:32:26;;;;;;;15.43;4.77;;;10.80;99.90;;;;;;5075468;28;20212;-64
2022/04/06 00:37:37;;;;;;;15.50;5.23;;;10.70;99.90;;;;;;5074871;28;20211;-64
2022/04/06 00:40:04;;;;;;;17.27;4.77;;;10.80;99.90;;;;;;5075137;28;20208;-62
2022/04/06 00:42:29;;;;;;;20.97;4.90;;;10.80;99.90;;;;;;5075393;28;20180;-63
2022/04/06 00:44:55;;;;;;;17.57;4.83;;;10.70;99.90;;;;;;5075346;28;20642;-63
2022/04/06 00:47:21;;;;;;;16.10;5.30;;;10.60;99.90;;;;;;5075124;28;20249;-63
2022/04/06 00:49:46;;;;;;;16.80;4.53;;;10.60;99.90;;;;;;5075102;28;20168;-62
2022/04/06 00:52:13;;;;;;;19.40;5.00;;;10.60;99.90;;;;;;5075112;28;20295;-62
2022/04/06 00:54:39;;;;;;;18.70;5.57;;;10.70;99.90;;;;;;5074713;28;20259;-63
2022/04/06 00:57:05;;;;;;;13.17;4.93;;;10.60;99.90;;;;;;5074239;28;20551;-63
2022/04/06 00:59:31;;;;;;;18.03;4.80;;;10.70;99.90;;;;;;5075601;28;20173;-63
2022/04/06 01:01:58;;;;;;;13.43;4.60;;;10.60;99.90;;;;;;5074828;28;20185;-63
2022/04/06 01:04:25;;;;;;;13.37;4.87;;;10.60;99.90;;;;;;5075140;28;20173;-63
2022/04/06 01:06:52;;;;;;;13.60;4.57;;;10.70;99.90;;;;;;5074517;28;20176;-64
2022/04/06 01:09:19;;;;;;;15.57;5.20;;;10.60;99.90;;;;;;5074991;28;20200;-62
2022/04/06 01:11:47;;;;;;;12.67;4.77;;;10.70;99.90;;;;;;5074869;28;20671;-63
2022/04/06 01:14:13;;;;;;;13.93;5.03;;;10.60;99.90;;;;;;5074866;28;20173;-62
2022/04/06 01:16:39;;;;;;;15.83;4.70;;;10.60;99.90;;;;;;5074707;28;20176;-63
2022/04/06 01:19:05;;;;;;;15.60;4.83;;;10.60;99.90;;;;;;5074565;28;20749;-62
2022/04/06 01:21:31;;;;;;;15.93;4.97;;;10.60;99.90;;;;;;5074295;28;20177;-62
2022/04/06 01:23:57;;;;;;;13.90;4.70;;;10.60;99.90;;;;;;5074839;28;20252;-63
2022/04/06 01:26:22;;;;;;;20.63;5.27;;;10.70;99.90;;;;;;5074684;28;20169;-62
2022/04/06 01:28:48;;;;;;;22.80;5.60;;;10.70;99.90;;;;;;5074470;28;20647;-63
2022/04/06 01:31:14;;;;;;;13.60;4.60;;;10.60;99.90;;;;;;5074389;28;20254;-63
2022/04/06 01:33:40;;;;;;;12.13;4.57;;;10.60;99.90;;;;;;5074310;28;20168;-63
2022/04/06 01:36:05;;;;;;;30.37;5.27;;;10.60;99.90;;;;;;5074060;28;20255;-62
2022/04/06 01:38:31;;;;;;;10.87;4.90;;;10.60;99.90;;;;;;5074280;28;20215;-63
2022/04/06 01:40:57;;;;;;;12.57;4.90;;;10.60;99.90;;;;;;5074320;28;20168;-63
2022/04/06 01:43:22;;;;;;;19.30;5.33;;;10.70;99.90;;;;;;5074247;28;20655;-62
2022/04/06 01:45:49;;;;;;;19.70;4.83;;;10.70;99.90;;;;;;5074277;28;20174;-65
2022/04/06 01:48:15;;;;;;;13.73;4.47;;;10.80;99.90;;;;;;5073985;28;20651;-63
2022/04/06 01:53:25;;;;;;;22.80;5.07;;;10.60;99.90;;;;;;5074122;28;20187;-63
2022/04/06 01:55:51;;;;;;;14.13;4.63;;;10.50;99.90;;;;;;5073693;28;20683;-62
2022/04/06 01:58:17;;;;;;;13.00;4.47;;;10.50;99.90;;;;;;5073944;28;20187;-62
2022/04/06 02:00:43;;;;;;;9.83;4.63;;;10.50;99.90;;;;;;5073797;28;20259;-63
2022/04/06 02:03:08;;;;;;;13.73;4.00;;;10.50;99.90;;;;;;5073902;28;20663;-63
2022/04/06 02:05:34;;;;;;;17.27;5.10;;;10.50;99.90;;;;;;5073463;28;20180;-63
2022/04/06 02:08:01;;;;;;;13.13;4.23;;;10.50;99.90;;;;;;5073878;28;20176;-63
2022/04/06 02:10:27;;;;;;;19.53;4.77;;;10.50;99.90;;;;;;5073511;28;20172;-63
2022/04/06 02:12:56;;;;;;;13.43;4.17;;;10.50;99.90;;;;;;5073721;28;20750;-63
2022/04/06 02:15:24;;;;;;;15.40;4.47;;;10.50;99.90;;;;;;5073541;28;20172;-63
2022/04/06 02:17:50;;;;;;;16.17;4.63;;;10.50;99.90;;;;;;5073686;28;20173;-62
2022/04/06 02:20:17;;;;;;;11.87;4.40;;;10.50;99.90;;;;;;5073223;28;20180;-63
2022/04/06 02:22:43;;;;;;;9.13;3.53;;;10.50;99.90;;;;;;5073628;28;20164;-63
2022/04/06 02:25:12;;;;;;;13.17;4.27;;;10.60;99.90;;;;;;5073367;28;20252;-63
2022/04/06 02:27:51;;;;;;;16.20;4.90;;;10.60;99.90;;;;;;5073623;28;20165;-63
2022/04/06 02:30:18;;;;;;;17.00;4.33;;;10.50;99.90;;;;;;5073293;28;20225;-63
2022/04/06 02:32:44;;;;;;;12.37;4.70;;;10.40;99.90;;;;;;5073263;28;20177;-63
2022/04/06 02:35:12;;;;;;;14.67;4.03;;;10.40;99.90;;;;;;5073034;28;20172;-63
2022/04/06 02:37:41;;;;;;;12.83;4.47;;;10.40;99.90;;;;;;5073432;28;20184;-63
2022/04/06 02:40:08;;;;;;;16.63;4.37;;;10.40;99.90;;;;;;5073061;28;20297;-63
2022/04/06 02:42:33;;;;;;;9.30;4.70;;;10.40;99.90;;;;;;5073057;28;20185;-63
2022/04/06 02:44:59;;;;;;;12.10;4.20;;;10.40;99.90;;;;;;5073697;28;20183;-63
2022/04/06 02:47:24;;;;;;;10.47;3.93;;;10.40;99.90;;;;;;5073276;28;20257;-62
2022/04/06 02:49:50;;;;;;;15.43;4.40;;;10.30;99.90;;;;;;5072705;28;20474;-62
2022/04/06 02:52:17;;;;;;;12.00;4.30;;;10.30;99.90;;;;;;5072869;28;20204;-62
2022/04/06 02:54:42;;;;;;;18.80;4.20;;;10.30;99.90;;;;;;5072947;28;20176;-62
2022/04/06 02:57:08;;;;;;;11.87;4.27;;;10.20;99.90;;;;;;5073178;28;20636;-63
2022/04/06 02:59:33;;;;;;;11.40;3.57;;;10.20;99.90;;;;;;5073112;28;20219;-63
2022/04/06 03:01:59;;;;;;;14.57;4.27;;;10.30;99.90;;;;;;5072412;28;20375;-63
2022/04/06 03:04:25;;;;;;;8.67;3.93;;;10.30;99.90;;;;;;5072618;28;20591;-63
2022/04/06 03:06:50;;;;;;;12.90;4.47;;;10.30;99.90;;;;;;5073064;28;20177;-62
2022/04/06 03:09:16;;;;;;;14.77;4.43;;;10.30;99.90;;;;;;5073079;28;20583;-63
2022/04/06 03:11:41;;;;;;;11.37;3.90;;;10.30;99.90;;;;;;5072834;28;20298;-63
2022/04/06 03:14:08;;;;;;;11.47;4.03;;;10.30;99.90;;;;;;5072838;28;20165;-63
2022/04/06 03:16:34;;;;;;;11.53;3.93;;;10.40;99.90;;;;;;5072495;28;20167;-64
2022/04/06 03:18:59;;;;;;;17.40;4.20;;;10.30;99.90;;;;;;5072225;28;20620;-63
2022/04/06 03:21:25;;;;;;;12.30;3.80;;;10.30;99.90;;;;;;5072314;28;20172;-62
2022/04/06 03:23:50;;;;;;;13.03;4.27;;;10.30;99.90;;;;;;5073012;28;20218;-63
2022/04/06 03:26:16;;;;;;;12.53;4.03;;;10.30;99.90;;;;;;5072867;28;20180;-63
2022/04/06 03:28:42;;;;;;;11.37;4.07;;;10.20;99.90;;;;;;5072427;28;20168;-63
2022/04/06 03:31:07;;;;;;;13.90;4.30;;;10.30;99.90;;;;;;5072432;28;20211;-63
2022/04/06 03:33:33;;;;;;;16.67;4.27;;;10.30;99.90;;;;;;5072141;28;20635;-63
2022/04/06 03:35:59;;;;;;;9.80;3.40;;;10.40;99.90;;;;;;5072268;28;20631;-63
2022/04/06 03:38:25;;;;;;;17.90;3.83;;;10.40;99.90;;;;;;5072662;28;20179;-63
2022/04/06 03:40:51;;;;;;;10.83;3.63;;;10.30;99.90;;;;;;5072171;28;20181;-63
2022/04/06 03:43:17;;;;;;;10.77;3.80;;;10.40;99.90;;;;;;5072640;28;20196;-62
2022/04/06 03:45:42;;;;;;;8.93;3.50;;;10.50;99.90;;;;;;5072257;28;20180;-62
2022/04/06 03:48:08;;;;;;;12.23;3.43;;;10.40;99.90;;;;;;5071935;28;20199;-63
2022/04/06 03:50:34;;;;;;;11.03;3.70;;;10.40;99.90;;;;;;5072146;28;20528;-63
2022/04/06 03:52:59;;;;;;;13.60;3.60;;;10.30;99.90;;;;;;5072168;28;20332;-63
2022/04/06 03:55:25;;;;;;;13.33;3.67;;;10.30;99.90;;;;;;5072231;28;20220;-62
2022/04/06 03:57:51;;;;;;;10.87;3.90;;;10.30;99.90;;;;;;5072207;28;20183;-64
2022/04/06 04:00:17;;;;;;;13.93;3.80;;;10.30;99.90;;;;;;5072149;28;20200;-63
2022/04/06 04:02:43;;;;;;;8.23;3.63;;;10.30;99.90;;;;;;5071645;28;20321;-64
2022/04/06 04:05:09;;;;;;;13.00;4.20;;;10.20;99.90;;;;;;5072109;28;20264;-63
2022/04/06 04:07:37;;;;;;;12.73;3.90;;;10.30;99.90;;;;;;5072430;28;20724;-63
2022/04/06 04:10:08;;;;;;;13.73;4.20;;;10.30;99.90;;;;;;5071991;28;20176;-63
2022/04/06 04:12:34;;;;;;;15.83;3.73;;;10.20;99.90;;;;;;5072095;28;20208;-62
2022/04/06 04:15:00;;;;;;;11.37;4.00;;;10.10;99.90;;;;;;5075396;28;20165;-63
2022/04/06 04:17:25;;;;;;;12.50;3.80;;;10.10;99.90;;;;;;5075272;28;20195;-63
2022/04/06 04:19:51;;;;;;;11.20;3.90;;;10.10;99.90;;;;;;5075600;28;20631;-63
2022/04/06 04:22:17;;;;;;;13.47;3.80;;;10.10;99.90;;;;;;5075550;28;20679;-61
2022/04/06 04:24:42;;;;;;;12.43;3.90;;;10.10;99.90;;;;;;5075250;28;20242;-64
2022/04/06 04:27:08;;;;;;;8.90;4.03;;;10.10;99.90;;;;;;5075229;28;20176;-63
2022/04/06 04:29:34;;;;;;;9.03;3.53;;;10.10;99.90;;;;;;5075350;28;20588;-63
2022/04/06 04:32:00;;;;;;;10.23;4.30;;;10.20;99.90;;;;;;5074792;28;20211;-63
2022/04/06 04:34:25;;;;;;;7.73;3.90;;;10.10;99.90;;;;;;5075167;28;20169;-63
2022/04/06 04:36:52;;;;;;;11.30;4.00;;;10.10;99.90;;;;;;5075336;28;20515;-63
2022/04/06 04:39:18;;;;;;;12.43;4.70;;;10.10;99.90;;;;;;5073750;28;20578;-63
2022/04/06 04:41:45;;;;;;;8.37;3.60;;;10.10;99.90;;;;;;5075284;28;20181;-63
2022/04/06 04:44:11;;;;;;;9.00;3.90;;;10.10;99.90;;;;;;5075181;28;20494;-62
2022/04/06 04:46:36;;;;;;;9.40;3.77;;;10.10;99.90;;;;;;5074680;28;20192;-63
2022/04/06 04:49:02;;;;;;;13.90;4.20;;;10.10;99.90;;;;;;5074680;28;20172;-63
2022/04/06 04:51:28;;;;;;;12.23;4.43;;;10.20;99.90;;;;;;5075143;28;20219;-63
2022/04/06 04:53:57;;;;;;;7.27;3.87;;;10.10;99.90;;;;;;5074915;28;20473;-62
2022/04/06 04:56:28;;;;;;;6.70;3.70;;;10.10;99.90;;;;;;5074582;28;20226;-63
2022/04/06 04:58:54;;;;;;;10.53;4.00;;;10.10;99.90;;;;;;5074215;28;20192;-63
2022/04/06 05:01:20;;;;;;;7.87;3.60;;;10.10;99.90;;;;;;5074698;28;20184;-63
2022/04/06 05:03:47;;;;;;;9.73;3.77;;;10.10;99.90;;;;;;5074569;28;20524;-63
2022/04/06 05:06:12;;;;;;;8.53;4.10;;;10.10;99.90;;;;;;5074705;28;20237;-63
2022/04/06 05:08:38;;;;;;;10.47;4.20;;;10.10;99.90;;;;;;5074929;28;20164;-62
2022/04/06 05:11:04;;;;;;;12.53;3.97;;;10.10;99.90;;;;;;5073729;28;20240;-63
2022/04/06 05:13:29;;;;;;;9.33;3.93;;;10.10;99.90;;;;;;5074333;28;20195;-62
2022/04/06 05:15:55;;;;;;;11.50;4.00;;;10.20;99.90;;;;;;5074146;28;20212;-62
2022/04/06 05:18:21;;;;;;;12.13;4.67;;;10.10;99.90;;;;;;5074502;28;20172;-63
2022/04/06 05:20:46;;;;;;;16.13;4.10;;;10.10;99.90;;;;;;5072136;28;20176;-64
2022/04/06 05:23:12;;;;;;;14.47;3.87;;;10.10;99.90;;;;;;5074019;28;20204;-63
2022/04/06 05:25:37;;;;;;;10.20;4.23;;;10.00;99.90;;;;;;5073352;28;20183;-62
2022/04/06 05:28:04;;;;;;;8.23;3.63;;;10.00;99.90;;;;;;5073915;28;20173;-63
2022/04/06 05:30:33;;;;;;;7.47;3.40;;;10.00;99.90;;;;;;5073785;28;20169;-63
2022/04/06 05:32:59;;;;;;;13.87;4.20;;;10.00;99.90;;;;;;5074061;28;20704;-63
2022/04/06 05:35:26;;;;;;;9.87;3.77;;;10.00;99.90;;;;;;5073917;28;20306;-63
2022/04/06 05:37:56;;;;;;;11.17;3.90;;;10.00;99.90;;;;;;5074389;28;20207;-64
2022/04/06 05:40:21;;;;;;;8.77;3.30;;;10.00;99.90;;;;;;5073397;28;20176;-63
2022/04/06 05:42:47;;;;;;;7.67;3.10;;;9.90;99.90;;;;;;5073214;28;20172;-63
2022/04/06 05:45:13;;;;;;;9.83;3.47;;;10.00;99.90;;;;;;5073623;28;20167;-62
2022/04/06 05:47:39;;;;;;;6.73;3.37;;;10.00;99.90;;;;;;5073723;28;20203;-63
2022/04/06 05:50:07;;;;;;;10.17;3.47;;;9.90;99.90;;;;;;5073276;28;20188;-63
2022/04/06 05:52:33;;;;;;;6.13;3.20;;;10.00;99.90;;;;;;5073300;28;20208;-63
2022/04/06 05:54:58;;;;;;;7.33;3.27;;;10.00;99.90;;;;;;5072444;28;20306;-63
2022/04/06 05:57:24;;;;;;;8.80;2.83;;;10.10;99.90;;;;;;5072702;28;20168;-63
2022/04/06 05:59:50;;;;;;;10.27;3.00;;;10.10;99.90;;;;;;5073011;28;20180;-63
2022/04/06 06:02:15;;;;;;;12.00;3.57;;;10.20;99.90;;;;;;5072721;28;20256;-62
2022/04/06 06:04:41;;;;;;;9.83;4.03;;;10.10;99.90;;;;;;5073663;28;20261;-63
2022/04/06 06:07:08;;;;;;;57.20;15.33;;;10.10;99.90;;;;;;5073221;28;20177;-63
2022/04/06 06:09:34;;;;;;;21.63;6.53;;;10.10;99.90;;;;;;5072591;28;20187;-62
2022/04/06 06:12:00;;;;;;;7.63;2.90;;;10.20;99.90;;;;;;5072587;28;20216;-63
2022/04/06 06:14:27;;;;;;;24.60;7.33;;;10.20;99.90;;;;;;5073163;28;20334;-63
2022/04/06 06:16:52;;;;;;;24.80;6.30;;;10.30;99.90;;;;;;5073412;28;20229;-63
2022/04/06 06:19:19;;;;;;;20.47;5.17;;;10.30;99.90;;;;;;5072347;28;20259;-63
2022/04/06 06:21:45;;;;;;;5.07;2.77;;;10.30;99.90;;;;;;5072785;28;20173;-63
2022/04/06 06:24:11;;;;;;;5.60;2.20;;;10.30;99.90;;;;;;5072734;28;20748;-63
2022/04/06 06:26:38;;;;;;;7.10;2.67;;;10.40;99.90;;;;;;5071834;28;20251;-62
2022/04/06 06:29:04;;;;;;;12.70;2.50;;;10.50;99.90;;;;;;5072945;28;20202;-64
2022/04/06 06:31:30;;;;;;;6.17;2.20;;;10.50;99.90;;;;;;5072710;28;20204;-63
2022/04/06 06:33:57;;;;;;;9.20;2.70;;;10.50;99.90;;;;;;5072305;28;20203;-63
2022/04/06 06:36:25;;;;;;;7.90;2.27;;;10.50;99.90;;;;;;5071810;28;20588;-64
2022/04/06 06:38:52;;;;;;;7.70;2.70;;;10.60;99.90;;;;;;5072250;28;20255;-63
2022/04/06 06:41:18;;;;;;;5.80;2.23;;;10.60;99.90;;;;;;5071789;28;20539;-63
2022/04/06 06:43:48;;;;;;;7.53;2.73;;;10.70;99.90;;;;;;5072695;28;20187;-62
2022/04/06 06:46:18;;;;;;;7.13;2.60;;;10.70;99.90;;;;;;5072487;28;20278;-63
2022/04/06 06:48:45;;;;;;;6.40;2.77;;;10.80;99.90;;;;;;5071995;28;20177;-63
2022/04/06 06:51:12;;;;;;;8.03;2.60;;;10.80;99.90;;;;;;5071971;28;20219;-62
2022/04/06 06:53:38;;;;;;;5.80;2.57;;;10.70;99.90;;;;;;5071804;28;20180;-62
2022/04/06 06:56:04;;;;;;;10.50;3.00;;;10.70;99.90;;;;;;5071186;28;20228;-63
2022/04/06 06:58:29;;;;;;;7.83;3.80;;;10.70;99.90;;;;;;5069808;28;20654;-64
2022/04/06 07:00:55;;;;;;;9.87;2.63;;;10.70;99.90;;;;;;5072324;28;20204;-64
2022/04/06 07:03:21;;;;;;;10.43;2.67;;;10.80;99.90;;;;;;5072220;28;20169;-64
2022/04/06 07:05:47;;;;;;;5.17;2.67;;;10.70;99.90;;;;;;5067736;28;20180;-64
2022/04/06 07:08:14;;;;;;;8.80;2.70;;;10.80;99.90;;;;;;5064526;28;20210;-63
2022/04/06 07:10:44;;;;;;;5.30;2.40;;;10.80;99.90;;;;;;5054428;28;20263;-65
2022/04/06 07:13:12;;;;;;;6.53;2.73;;;10.90;99.90;;;;;;5076178;28;20196;-64
2022/04/06 07:15:39;;;;;;;5.93;2.70;;;11.00;99.90;;;;;;5075656;28;20165;-62
2022/04/06 07:18:07;;;;;;;5.40;2.30;;;11.10;99.90;;;;;;5079060;28;20168;-64
2022/04/06 07:20:35;;;;;;;5.57;2.47;;;10.90;99.90;;;;;;5082377;28;20188;-63
2022/04/06 07:23:05;;;;;;;6.97;2.43;;;11.00;99.90;;;;;;5071918;28;20189;-63
2022/04/06 07:25:31;;;;;;;3.80;1.97;;;10.80;99.90;;;;;;5074807;28;20179;-63
2022/04/06 07:27:57;;;;;;;10.73;2.40;;;10.80;99.90;;;;;;5062858;28;20508;-62
2022/04/06 07:30:22;;;;;;;7.60;2.70;;;10.70;99.90;;;;;;5079712;28;20173;-63
2022/04/06 07:32:48;;;;;;;7.17;2.00;;;10.70;99.90;;;;;;5074441;28;20176;-64
2022/04/06 07:35:16;;;;;;;5.77;2.17;;;10.80;99.90;;;;;;5076440;28;20173;-64
2022/04/06 07:37:47;;;;;;;4.77;2.57;;;10.70;99.90;;;;;;5088296;28;20708;-62
2022/04/06 07:40:14;;;;;;;5.30;2.20;;;10.70;99.90;;;;;;5074905;28;20609;-64
2022/04/06 07:42:41;;;;;;;9.47;2.67;;;10.80;99.90;;;;;;5078557;28;20206;-65
2022/04/06 07:45:18;;;;;;;7.53;2.20;;;10.80;99.90;;;;;;5077560;28;20184;-64
2022/04/06 07:47:53;;;;;;;6.20;2.27;;;11.00;99.90;;;;;;5078172;28;20560;-65
2022/04/06 07:50:20;;;;;;;5.67;2.03;;;10.90;99.90;;;;;;5088023;28;20233;-65
2022/04/06 07:52:46;;;;;;;6.03;2.70;;;11.00;99.90;;;;;;5079088;28;20284;-64
2022/04/06 07:55:13;;;;;;;6.80;2.30;;;10.90;99.90;;;;;;5080188;28;20679;-65
2022/04/06 07:57:39;;;;;;;9.13;2.47;;;11.10;99.90;;;;;;5066319;28;20204;-65
2022/04/06 08:00:15;;;;;;;7.03;2.30;;;11.00;99.90;;;;;;5093192;28;20160;-63
2022/04/06 08:02:41;;;;;;;8.90;2.37;;;11.10;99.90;;;;;;5075742;28;20172;-63
2022/04/06 08:05:07;;;;;;;5.27;1.73;;;11.20;99.90;;;;;;5081191;28;20236;-64
2022/04/06 08:07:33;;;;;;;6.73;1.97;;;11.10;99.90;;;;;;5073786;28;20180;-64
2022/04/06 08:09:59;;;;;;;4.20;2.00;;;11.10;99.90;;;;;;5090594;28;20176;-64
2022/04/06 08:12:25;;;;;;;5.07;2.10;;;11.20;99.90;;;;;;5082893;28;20203;-64
2022/04/06 08:14:50;;;;;;;15.07;6.10;;;11.20;99.90;;;;;;5083202;28;20173;-64
2022/04/06 08:17:17;;;;;;;17.57;8.53;;;11.30;99.90;;;;;;5079633;28;20165;-63
2022/04/06 08:19:42;;;;;;;5.67;2.10;;;11.30;99.90;;;;;;5090823;28;20190;-63
2022/04/06 08:22:08;;;;;;;9.07;2.30;;;11.40;99.90;;;;;;5080656;28;20176;-64
2022/04/06 08:24:33;;;;;;;10.07;5.30;;;11.50;99.90;;;;;;5084100;28;20221;-64
2022/04/06 08:26:59;;;;;;;5.37;2.30;;;11.60;99.90;;;;;;5072533;28;20323;-65
2022/04/06 08:29:25;;;;;;;6.10;2.00;;;11.70;99.90;;;;;;5073426;28;20182;-65
2022/04/06 08:31:50;;;;;;;6.90;2.50;;;11.70;99.90;;;;;;5061640;28;20235;-64
2022/04/06 08:34:16;;;;;;;9.27;2.63;;;11.60;99.90;;;;;;5087259;28;20243;-64
2022/04/06 08:36:43;;;;;;;9.57;2.50;;;11.70;99.90;;;;;;5075844;28;20268;-65
2022/04/06 08:39:09;;;;;;;11.03;6.77;;;11.70;99.90;;;;;;5073856;28;20187;-64
2022/04/06 08:41:35;;;;;;;5.63;3.40;;;11.90;99.90;;;;;;5073680;28;20172;-63
2022/04/06 08:44:01;;;;;;;5.07;3.07;;;12.00;99.90;;;;;;5070188;28;20179;-64
2022/04/06 08:46:36;;;;;;;4.77;2.10;;;11.80;99.90;;;;;;5084252;28;20659;-65
2022/04/06 08:49:03;;;;;;;10.60;4.37;;;11.90;99.90;;;;;;5080780;28;20865;-64
2022/04/06 08:51:28;;;;;;;6.67;2.40;;;12.00;99.90;;;;;;5072156;28;20236;-64
2022/04/06 08:53:55;;;;;;;6.43;3.20;;;12.10;99.90;;;;;;5067679;28;20266;-64
2022/04/06 08:56:22;;;;;;;9.27;2.77;;;12.20;99.90;;;;;;5079966;28;20223;-64
2022/04/06 08:58:48;;;;;;;7.30;2.80;;;12.10;99.90;;;;;;5071095;28;20169;-63
2022/04/06 09:01:14;;;;;;;8.13;3.60;;;12.10;99.90;;;;;;5088562;28;20575;-64
2022/04/06 09:03:40;;;;;;;7.77;2.50;;;12.10;99.90;;;;;;5076796;28;20283;-64
2022/04/06 09:06:08;;;;;;;7.43;2.30;;;12.20;99.90;;;;;;5088488;28;20183;-63
2022/04/06 09:08:35;;;;;;;5.57;2.13;;;12.40;99.90;;;;;;5082999;28;20191;-65
2022/04/06 09:11:12;;;;;;;5.60;2.40;;;12.50;99.90;;;;;;5080204;28;20685;-64
2022/04/06 09:13:42;;;;;;;4.53;2.10;;;12.70;99.90;;;;;;5090354;28;20661;-63
2022/04/06 09:16:12;;;;;;;6.23;2.00;;;12.90;99.90;;;;;;5079657;28;20619;-64
2022/04/06 09:18:41;;;;;;;8.73;2.47;;;13.10;99.90;;;;;;5082900;28;20520;-64
2022/04/06 09:21:09;;;;;;;8.27;2.60;;;13.20;99.90;;;;;;5079347;28;20177;-65
2022/04/06 09:23:35;;;;;;;4.10;2.17;;;13.20;99.90;;;;;;5090338;28;20174;-64
2022/04/06 09:26:05;;;;;;;3.70;2.17;;;13.30;99.90;;;;;;5067611;28;20183;-63
2022/04/06 09:28:32;;;;;;;9.23;2.60;;;13.30;99.90;;;;;;5072040;28;20247;-64
2022/04/06 09:30:58;;;;;;;5.73;2.37;;;13.20;99.90;;;;;;5072173;28;20268;-64
2022/04/06 09:33:28;;;;;;;10.87;5.63;;;13.20;99.90;;;;;;5060026;28;20179;-66
2022/04/06 09:35:55;;;;;;;7.03;4.03;;;13.20;99.90;;;;;;5068988;28;20176;-64
2022/04/06 09:38:27;;;;;;;6.97;2.50;;;13.00;99.90;;;;;;5085920;28;20525;-65
2022/04/06 09:41:03;;;;;;;7.93;3.17;;;12.80;99.90;;;;;;5085292;28;20183;-63
2022/04/06 09:43:30;;;;;;;4.73;3.47;;;12.80;99.90;;;;;;5076615;28;20268;-64
2022/04/06 09:49:00;;;;;;;5.57;3.20;;;12.70;99.90;;;;;;5072268;28;20614;-64
2022/04/06 09:51:26;;;;;;;6.27;2.80;;;13.00;99.90;;;;;;5089891;28;20203;-65
2022/04/06 09:53:53;;;;;;;7.87;4.30;;;13.00;99.90;;;;;;5076349;28;20599;-65
2022/04/06 09:56:22;;;;;;;6.27;3.10;;;13.00;99.90;;;;;;5082763;28;20215;-65
2022/04/06 09:58:48;;;;;;;6.43;4.23;;;13.10;99.90;;;;;;5080757;28;20300;-64
2022/04/06 10:01:15;;;;;;;7.20;3.90;;;12.80;99.90;;;;;;5087502;28;20175;-65
2022/04/06 10:03:46;;;;;;;7.67;4.60;;;12.60;99.90;;;;;;5075752;28;20180;-64
2022/04/06 10:06:12;;;;;;;7.00;3.20;;;12.60;99.90;;;;;;5086603;28;20169;-65
2022/04/06 10:08:39;;;;;;;5.73;4.20;;;12.70;99.90;;;;;;5074670;28;20173;-64
2022/04/06 10:11:05;;;;;;;4.83;2.80;;;12.80;99.90;;;;;;5085422;28;20551;-65
2022/04/06 10:13:32;;;;;;;5.07;3.10;;;12.90;99.90;;;;;;5075806;28;20266;-65
2022/04/06 10:15:58;;;;;;;6.67;3.27;;;12.90;99.90;;;;;;5088402;28;20163;-64
2022/04/06 10:18:26;;;;;;;6.57;2.90;;;13.10;99.90;;;;;;5070467;28;20932;-64
2022/04/06 10:20:55;;;;;;;3.23;2.60;;;12.90;99.90;;;;;;5056553;28;20239;-64
2022/04/06 10:23:44;;;;;;;6.20;3.13;;;12.80;99.90;;;;;;5072856;28;20185;-64
2022/04/06 10:26:19;;;;;;;5.80;2.90;;;12.80;99.90;;;;;;5064886;28;20171;-65
2022/04/06 10:28:47;;;;;;;6.53;2.80;;;12.60;99.90;;;;;;5081216;28;20172;-65
2022/04/06 10:31:24;;;;;;;5.20;3.03;;;12.50;99.90;;;;;;5087131;28;20199;-65
2022/04/06 10:33:51;;;;;;;8.53;5.87;;;12.50;99.90;;;;;;5075190;28;20175;-64
2022/04/06 10:36:17;;;;;;;5.13;2.90;;;12.30;99.90;;;;;;5085661;28;20258;-64
2022/04/06 10:39:22;;;;;;;5.10;3.87;;;12.20;99.90;;;;;;5083089;28;20624;-64
2022/04/06 10:42:12;;;;;;;7.33;4.70;;;12.20;99.90;;;;;;5033048;28;20169;-64
2022/04/06 10:44:38;;;;;;;7.63;2.87;;;12.30;99.90;;;;;;5040112;28;20170;-65
2022/04/06 10:47:09;;;;;;;5.53;3.43;;;12.40;99.90;;;;;;5042762;28;20291;-65
2022/04/06 10:49:35;;;;;;;8.97;3.10;;;12.40;99.90;;;;;;5033250;28;20487;-64
2022/04/06 10:52:24;;;;;;;4.33;2.93;;;12.50;99.90;;;;;;5050131;28;20303;-65
2022/04/06 10:54:51;;;;;;;10.17;3.60;;;12.50;99.90;;;;;;5049851;28;20173;-64
2022/04/06 10:57:18;;;;;;;6.97;3.53;;;12.50;99.90;;;;;;5049779;28;20181;-65
2022/04/06 10:59:43;;;;;;;5.80;3.23;;;12.50;99.90;;;;;;5050062;28;20209;-64
2022/04/06 11:02:17;;;;;;;5.30;3.50;;;12.50;99.90;;;;;;5048970;28;20215;-63
2022/04/06 11:04:43;;;;;;;5.80;3.30;;;12.60;99.90;;;;;;5050912;28;20200;-64
2022/04/06 11:07:09;;;;;;;3.50;2.80;;;12.40;99.90;;;;;;5050317;28;20282;-65
2022/04/06 11:12:22;;;;;;;3.87;2.90;;;12.50;99.90;;;;;;5039278;28;20255;-65
2022/04/06 11:15:00;;;;;;;4.87;2.67;;;12.60;99.90;;;;;;5054296;28;20650;-64
2022/04/06 11:19:58;;;;;;;6.17;3.00;;;12.60;99.90;;;;;;5052775;28;20177;-65
2022/04/06 11:22:24;;;;;;;5.97;3.00;;;12.80;99.90;;;;;;5052273;28;20268;-65
2022/04/06 11:24:50;;;;;;;9.37;3.37;;;12.90;99.90;;;;;;5068793;28;20731;-65
2022/04/06 11:27:45;;;;;;;5.57;3.30;;;12.90;99.90;;;;;;5080742;28;20225;-65
2022/04/06 11:30:16;;;;;;;6.40;3.53;;;12.80;99.90;;;;;;5036004;28;20277;-64
2022/04/06 11:32:49;;;;;;;7.67;3.97;;;12.60;99.90;;;;;;5047104;28;20278;-63
2022/04/06 11:35:16;;;;;;;6.77;3.47;;;12.40;99.90;;;;;;5038660;28;20177;-64
2022/04/06 11:37:49;;;;;;;5.87;3.20;;;12.50;99.90;;;;;;5044831;28;20185;-65
2022/04/06 11:40:17;;;;;;;4.57;3.13;;;12.60;99.90;;;;;;5044563;28;20178;-65
2022/04/06 11:42:53;;;;;;;5.57;3.30;;;12.60;99.90;;;;;;5025793;28;20178;-65
2022/04/06 11:45:23;;;;;;;6.73;5.63;;;12.80;99.90;;;;;;5046685;28;20174;-65
2022/04/06 11:47:58;;;;;;;10.47;4.80;;;12.80;99.90;;;;;;5042933;28;20220;-65
2022/04/06 11:50:30;;;;;;;7.20;3.90;;;12.70;99.90;;;;;;5037821;28;20200;-64
2022/04/06 11:52:59;;;;;;;5.53;3.30;;;12.70;99.90;;;;;;5031620;28;20218;-64
2022/04/06 11:55:42;;;;;;;7.80;3.60;;;12.40;99.90;;;;;;5040256;28;20236;-64
2022/04/06 11:58:08;;;;;;;7.93;3.40;;;12.30;99.90;;;;;;5040587;28;20174;-64
2022/04/06 12:00:35;;;;;;;12.77;11.00;;;12.10;99.90;;;;;;5047859;28;20191;-65
2022/04/06 12:03:02;;;;;;;5.07;3.27;;;12.10;99.90;;;;;;5030090;28;20786;-65
2022/04/06 12:05:28;;;;;;;5.80;3.67;;;12.10;99.90;;;;;;5047781;28;20174;-63
2022/04/06 12:08:15;;;;;;;5.63;3.37;;;12.00;99.90;;;;;;5082163;28;20204;-65
2022/04/06 12:10:52;;;;;;;3.57;3.10;;;12.00;99.90;;;;;;5088206;28;20191;-64
2022/04/06 12:13:19;;;;;;;9.87;3.57;;;12.00;99.90;;;;;;5070711;28;20176;-64
2022/04/06 12:15:48;;;;;;;3.60;3.20;;;12.00;99.90;;;;;;5083594;28;20195;-64
2022/04/06 12:18:18;;;;;;;4.60;3.60;;;12.10;99.90;;;;;;5079939;28;20584;-63
2022/04/06 12:20:46;;;;;;;3.37;3.07;;;12.00;99.90;;;;;;5081076;28;20244;-64
2022/04/06 12:23:12;;;;;;;5.87;3.20;;;12.10;99.90;;;;;;5080896;28;20180;-65
2022/04/06 12:25:39;;;;;;;4.17;3.00;;;12.00;99.90;;;;;;5086715;28;20171;-64
2022/04/06 12:28:17;;;;;;;7.07;4.03;;;12.00;99.90;;;;;;5073644;28;20196;-65
2022/04/06 12:31:07;;;;;;;5.63;3.50;;;12.10;99.90;;;;;;5074479;28;20176;-64
2022/04/06 12:33:51;;;;;;;4.10;2.93;;;12.20;99.90;;;;;;5062881;28;20189;-65
2022/04/06 12:36:27;;;;;;;5.53;3.40;;;12.20;99.90;;;;;;5055351;28;20294;-63
2022/04/06 12:39:11;;;;;;;6.73;3.50;;;12.20;99.90;;;;;;5054445;28;20393;-65
2022/04/06 12:42:02;;;;;;;4.33;2.83;;;12.40;99.90;;;;;;5054221;28;20187;-64
2022/04/06 12:44:30;;;;;;;8.03;3.40;;;12.30;99.90;;;;;;5054580;28;20529;-64
2022/04/06 12:46:56;;;;;;;4.00;3.10;;;12.40;99.90;;;;;;5058227;28;20223;-65
2022/04/06 12:49:27;;;;;;;9.13;3.57;;;12.40;99.90;;;;;;5067075;28;20178;-65
2022/04/06 12:52:05;;;;;;;4.17;3.47;;;12.30;99.90;;;;;;5068430;28;20205;-64
2022/04/06 12:54:33;;;;;;;5.80;3.17;;;12.20;99.90;;;;;;5067987;28;20539;-64
2022/04/06 12:57:14;;;;;;;12.00;3.70;;;12.20;99.90;;;;;;5074218;28;20214;-64
2022/04/06 12:59:39;;;;;;;6.43;3.80;;;12.20;99.90;;;;;;5073531;28;20174;-64